createdAt,value
2023-01-03T00:00:55.273Z,71.33
2023-01-03T00:03:27.957Z,71.26
2023-01-03T00:05:59.893Z,70.99
2023-01-03T00:08:32.005Z,70.72
2023-01-03T00:11:12.378Z,70.38
2023-01-03T00:13:45.349Z,70.27
2023-01-03T00:16:19.393Z,70.28
2023-01-03T00:18:51.407Z,70.24
2023-01-03T00:21:23.390Z,70.17
2023-01-03T00:23:56.517Z,70.50
2023-01-03T00:26:29.223Z,69.97
2023-01-03T00:29:01.424Z,69.71
2023-01-03T00:31:33.391Z,69.66
2023-01-03T00:34:05.861Z,69.76
2023-01-03T00:36:38.924Z,69.75
2023-01-03T00:39:12.244Z,69.56
2023-01-03T00:41:44.335Z,69.39
2023-01-03T00:44:16.608Z,69.53
2023-01-03T00:46:48.729Z,69.36
2023-01-03T00:49:20.967Z,69.38
2023-01-03T00:51:56.063Z,69.38
2023-01-03T00:54:28.024Z,69.07
2023-01-03T00:57:00.001Z,69.36
2023-01-03T00:59:31.985Z,69.47
2023-01-03T01:02:05.386Z,69.49
2023-01-03T01:04:37.366Z,69.49
2023-01-03T01:07:10.320Z,69.35
2023-01-03T01:09:42.199Z,69.43
2023-01-03T01:12:14.062Z,69.40
2023-01-03T01:14:46.028Z,69.57
2023-01-03T01:17:22.586Z,69.71
2023-01-03T01:19:55.299Z,69.67
2023-01-03T01:22:27.217Z,69.86
2023-01-03T01:24:59.056Z,69.57
2023-01-03T01:27:31.950Z,70.22
2023-01-03T01:30:04.442Z,70.00
2023-01-03T01:32:36.385Z,70.18
2023-01-03T01:35:08.857Z,70.08
2023-01-03T01:37:40.801Z,70.30
2023-01-03T01:40:13.216Z,70.29
2023-01-03T01:43:04.001Z,70.33
2023-01-03T01:45:36.401Z,70.39
2023-01-03T01:48:13.420Z,70.13
2023-01-03T01:50:50.422Z,69.84
2023-01-03T01:53:27.924Z,69.82
2023-01-03T01:56:15.777Z,69.77
2023-01-03T01:58:50.825Z,69.61
2023-01-03T02:01:24.931Z,69.82
2023-01-03T02:04:08.167Z,69.61
2023-01-03T02:06:40.805Z,69.68
2023-01-03T02:09:13.046Z,69.52
2023-01-03T02:12:13.711Z,69.50
2023-01-03T02:15:16.331Z,69.42
2023-01-03T02:18:30.063Z,69.49
2023-01-03T02:21:19.643Z,69.54
2023-01-03T02:24:10.521Z,69.23
2023-01-03T02:27:07.296Z,69.39
2023-01-03T02:29:48.219Z,69.36
2023-01-03T02:32:34.014Z,69.75
2023-01-03T02:35:23.551Z,69.62
2023-01-03T02:38:18.074Z,69.73
2023-01-03T02:41:18.244Z,69.90
2023-01-03T02:44:05.270Z,69.56
2023-01-03T02:46:47.117Z,69.43
2023-01-03T02:49:37.847Z,69.35
2023-01-03T02:52:29.167Z,69.86
2023-01-03T02:55:07.418Z,69.71
2023-01-03T02:57:45.911Z,69.35
2023-01-03T03:00:22.881Z,69.39
2023-01-03T03:03:01.082Z,69.36
2023-01-03T03:06:02.702Z,69.00
2023-01-03T03:08:34.713Z,69.22
2023-01-03T03:11:26.176Z,69.06
2023-01-03T03:14:10.022Z,69.09
2023-01-03T03:16:49.555Z,69.11
2023-01-03T03:19:55.605Z,68.90
2023-01-03T03:22:57.538Z,69.17
2023-01-03T03:25:43.289Z,68.77
2023-01-03T03:28:37.859Z,68.92
2023-01-03T03:31:23.606Z,68.64
2023-01-03T03:34:06.650Z,68.91
2023-01-03T03:37:03.499Z,68.79
2023-01-03T03:39:54.728Z,68.91
2023-01-03T03:42:56.147Z,69.00
2023-01-03T03:45:45.355Z,68.69
2023-01-03T03:48:20.234Z,68.78
2023-01-03T03:51:04.547Z,68.67
2023-01-03T03:53:39.488Z,68.27
2023-01-03T03:56:18.041Z,68.50
2023-01-03T03:58:55.841Z,68.72
2023-01-03T04:01:29.987Z,69.13
2023-01-03T04:04:08.244Z,69.17
2023-01-03T04:06:51.475Z,68.99
2023-01-03T04:09:23.466Z,69.22
2023-01-03T04:11:55.487Z,69.31
2023-01-03T04:14:27.466Z,69.10
2023-01-03T04:16:59.487Z,69.91
2023-01-03T04:19:31.467Z,69.83
2023-01-03T04:22:03.465Z,70.04
2023-01-03T04:24:35.445Z,70.13
2023-01-03T04:27:07.442Z,70.04
2023-01-03T04:29:39.856Z,70.25
2023-01-03T04:32:12.011Z,69.82
2023-01-03T04:34:44.040Z,69.49
2023-01-03T04:37:16.058Z,69.72
2023-01-03T04:39:48.109Z,69.19
2023-01-03T04:42:38.825Z,69.37
2023-01-03T04:45:11.761Z,69.38
2023-01-03T04:47:43.733Z,69.59
2023-01-03T04:50:15.950Z,69.46
2023-01-03T04:52:47.921Z,69.47
2023-01-03T04:55:20.231Z,69.47
2023-01-03T04:57:52.507Z,69.74
2023-01-03T05:00:24.467Z,69.72
2023-01-03T05:02:56.480Z,69.47
2023-01-03T05:05:28.446Z,69.68
2023-01-03T05:08:04.649Z,69.50
2023-01-03T05:10:39.266Z,69.52
2023-01-03T05:13:11.641Z,69.78
2023-01-03T05:15:44.060Z,69.85
2023-01-03T05:18:16.061Z,70.31
2023-01-03T05:21:06.816Z,70.37
2023-01-03T05:23:57.514Z,70.02
2023-01-03T05:26:29.512Z,70.57
2023-01-03T05:29:01.448Z,70.58
2023-01-03T05:31:33.540Z,70.36
2023-01-03T05:34:05.589Z,70.40
2023-01-03T05:36:37.754Z,70.24
2023-01-03T05:39:09.720Z,70.65
2023-01-03T05:42:00.065Z,70.77
2023-01-03T05:44:34.353Z,70.76
2023-01-03T05:47:06.325Z,70.55
2023-01-03T05:49:38.454Z,70.57
2023-01-03T05:52:10.359Z,70.64
2023-01-03T05:54:42.186Z,70.64
2023-01-03T05:57:14.254Z,71.01
2023-01-03T05:59:46.224Z,70.82
2023-01-03T06:02:18.220Z,70.87
2023-01-03T06:04:50.280Z,71.07
2023-01-03T06:07:22.263Z,71.64
2023-01-03T06:09:54.193Z,71.76
2023-01-03T06:12:30.378Z,71.27
2023-01-03T06:15:02.432Z,71.44
2023-01-03T06:17:53.004Z,71.52
2023-01-03T06:20:29.049Z,71.91
2023-01-03T06:23:00.994Z,71.72
2023-01-03T06:25:32.931Z,71.19
2023-01-03T06:28:04.925Z,71.20
2023-01-03T06:30:36.890Z,70.87
2023-01-03T06:33:08.830Z,70.82
2023-01-03T06:35:40.858Z,70.79
2023-01-03T06:38:12.793Z,71.00
2023-01-03T06:40:51.043Z,71.03
2023-01-03T06:43:22.950Z,70.94
2023-01-03T06:46:14.182Z,71.24
2023-01-03T06:49:05.619Z,70.84
2023-01-03T06:51:55.948Z,70.51
2023-01-03T06:54:30.915Z,70.07
2023-01-03T06:57:03.117Z,70.33
2023-01-03T06:59:35.076Z,69.74
2023-01-03T07:02:07.289Z,69.93
2023-01-03T07:04:39.435Z,70.03
2023-01-03T07:07:11.368Z,69.77
2023-01-03T07:09:43.326Z,69.99
2023-01-03T07:12:37.890Z,69.96
2023-01-03T07:15:10.514Z,70.33
2023-01-03T07:17:42.458Z,70.13
2023-01-03T07:20:14.458Z,69.79
2023-01-03T07:22:46.401Z,69.78
2023-01-03T07:25:18.464Z,69.55
2023-01-03T07:28:01.864Z,69.69
2023-01-03T07:30:39.681Z,69.52
2023-01-03T07:33:13.990Z,69.45
2023-01-03T07:35:46.398Z,69.65
2023-01-03T07:38:19.001Z,69.60
2023-01-03T07:40:50.919Z,69.91
2023-01-03T07:43:37.979Z,69.95
2023-01-03T07:46:23.032Z,69.80
2023-01-03T07:49:07.889Z,69.75
2023-01-03T07:51:43.081Z,69.57
2023-01-03T07:54:15.021Z,70.06
2023-01-03T07:56:46.939Z,69.81
2023-01-03T07:59:19.285Z,69.94
2023-01-03T08:01:51.363Z,70.22
2023-01-03T08:04:23.329Z,69.91
2023-01-03T08:06:55.285Z,70.22
2023-01-03T08:09:46.654Z,70.41
2023-01-03T08:12:37.148Z,70.15
2023-01-03T08:15:09.494Z,70.24
2023-01-03T08:17:41.426Z,70.14
2023-01-03T08:20:13.292Z,69.96
2023-01-03T08:22:45.198Z,69.37
2023-01-03T08:25:17.218Z,70.03
2023-01-03T08:27:50.498Z,69.86
2023-01-03T08:30:22.609Z,69.61
2023-01-03T08:32:55.808Z,69.13
2023-01-03T08:35:31.742Z,68.85
2023-01-03T08:38:06.260Z,69.17
2023-01-03T08:40:42.316Z,69.45
2023-01-03T08:43:16.191Z,69.08
2023-01-03T08:45:49.436Z,68.83
2023-01-03T08:48:23.419Z,68.76
2023-01-03T08:50:55.436Z,69.09
2023-01-03T08:53:30.156Z,68.89
2023-01-03T08:56:02.073Z,68.87
2023-01-03T08:58:34.419Z,68.54
2023-01-03T09:01:07.232Z,68.54
2023-01-03T09:03:39.451Z,69.22
2023-01-03T09:06:11.506Z,69.21
2023-01-03T09:08:43.630Z,69.34
2023-01-03T09:11:15.721Z,68.98
2023-01-03T09:13:47.716Z,69.12
2023-01-03T09:16:21.061Z,68.94
2023-01-03T09:18:53.021Z,68.01
2023-01-03T09:21:25.004Z,65.93
2023-01-03T09:23:57.084Z,64.83
2023-01-03T09:26:30.021Z,63.94
2023-01-03T09:29:02.275Z,63.51
2023-01-03T09:31:35.594Z,62.84
2023-01-03T09:34:07.648Z,61.36
2023-01-03T09:36:40.857Z,60.67
2023-01-03T09:39:12.915Z,60.40
2023-01-03T09:41:45.197Z,60.83
2023-01-03T09:44:17.388Z,60.91
2023-01-03T09:46:49.421Z,61.76
2023-01-03T09:49:21.398Z,62.36
2023-01-03T09:52:13.072Z,63.38
2023-01-03T09:55:04.226Z,63.32
2023-01-03T09:57:55.479Z,62.48
2023-01-03T10:00:57.489Z,61.56
2023-01-03T10:04:12.047Z,61.63
2023-01-03T10:07:17.168Z,61.06
2023-01-03T10:10:16.788Z,60.71
2023-01-03T10:13:16.180Z,60.80
2023-01-03T10:15:58.810Z,60.39
2023-01-03T10:18:55.582Z,59.46
2023-01-03T10:22:00.772Z,58.43
2023-01-03T10:24:41.648Z,58.28
2023-01-03T10:27:18.051Z,58.30
2023-01-03T10:29:54.362Z,57.56
2023-01-03T10:32:32.119Z,57.41
2023-01-03T10:35:16.919Z,56.41
2023-01-03T10:37:52.487Z,56.72
2023-01-03T10:40:42.281Z,56.09
2023-01-03T10:43:26.193Z,56.42
2023-01-03T10:46:04.730Z,57.01
2023-01-03T10:51:43.123Z,57.02
2023-01-03T10:54:18.245Z,57.57
2023-01-03T10:56:51.486Z,57.01
2023-01-03T10:59:31.908Z,56.41
2023-01-03T11:02:09.869Z,56.17
2023-01-03T11:04:42.823Z,56.06
2023-01-03T11:07:17.237Z,55.63
2023-01-03T11:09:54.750Z,55.63
2023-01-03T11:12:40.892Z,55.65
2023-01-03T11:15:18.999Z,55.64
2023-01-03T11:18:02.735Z,55.74
2023-01-03T11:20:49.101Z,56.26
2023-01-03T11:23:41.549Z,55.51
2023-01-03T11:26:50.783Z,55.99
2023-01-03T11:30:04.398Z,55.81
2023-01-03T11:32:44.121Z,55.30
2023-01-03T11:35:35.371Z,54.64
2023-01-03T11:38:28.681Z,54.97
2023-01-03T11:41:19.533Z,55.05
2023-01-03T11:44:09.871Z,55.07
2023-01-03T11:47:09.271Z,55.82
2023-01-03T11:50:08.455Z,55.70
2023-01-03T11:52:55.405Z,55.95
2023-01-03T11:56:04.851Z,56.20
2023-01-03T11:58:57.731Z,56.39
2023-01-03T12:01:42.925Z,56.62
2023-01-03T12:04:40.934Z,56.82
2023-01-03T12:07:47.214Z,56.56
2023-01-03T12:10:35.199Z,56.44
2023-01-03T12:13:13.064Z,56.91
2023-01-03T12:15:48.501Z,56.99
2023-01-03T12:18:37.626Z,56.71
2023-01-03T12:21:19.425Z,56.54
2023-01-03T12:23:57.086Z,57.03
2023-01-03T12:26:30.213Z,56.75
2023-01-03T12:29:09.525Z,56.86
2023-01-03T12:31:50.065Z,57.01
2023-01-03T12:34:34.409Z,57.01
2023-01-03T12:37:13.700Z,57.00
2023-01-03T12:40:01.994Z,57.22
2023-01-03T12:42:33.941Z,56.45
2023-01-03T12:45:09.518Z,56.82
2023-01-03T12:47:44.325Z,57.02
2023-01-03T12:50:33.645Z,57.18
2023-01-03T12:53:14.530Z,57.31
2023-01-03T12:55:46.279Z,57.26
2023-01-03T12:58:39.252Z,58.13
2023-01-03T13:01:40.007Z,57.86
2023-01-03T13:04:33.914Z,57.96
2023-01-03T13:07:30.028Z,58.24
2023-01-03T13:10:09.414Z,58.55
2023-01-03T13:12:48.844Z,58.97
2023-01-03T13:15:38.996Z,59.18
2023-01-03T13:18:37.400Z,59.71
2023-01-03T13:21:46.877Z,60.02
2023-01-03T13:24:46.352Z,60.29
2023-01-03T13:27:21.335Z,60.65
2023-01-03T13:29:53.561Z,60.60
2023-01-03T13:32:36.344Z,61.11
2023-01-03T13:35:16.232Z,60.91
2023-01-03T13:37:55.182Z,61.08
2023-01-03T13:41:08.007Z,61.17
2023-01-03T13:43:40.272Z,61.50
2023-01-03T13:46:20.441Z,61.56
2023-01-03T13:48:56.969Z,61.45
2023-01-03T13:51:38.072Z,61.72
2023-01-03T13:54:13.153Z,61.96
2023-01-03T13:56:45.090Z,61.93
2023-01-03T13:59:19.982Z,61.91
2023-01-03T14:02:10.223Z,62.49
2023-01-03T14:05:09.983Z,62.68
2023-01-03T14:08:00.438Z,62.75
2023-01-03T14:10:49.734Z,62.81
2023-01-03T14:13:33.626Z,62.72
2023-01-03T14:16:27.355Z,63.07
2023-01-03T14:19:06.957Z,63.13
2023-01-03T14:21:54.860Z,63.58
2023-01-03T14:24:32.562Z,63.42
2023-01-03T14:27:17.155Z,63.64
2023-01-03T14:29:52.692Z,64.05
2023-01-03T14:32:33.744Z,64.20
2023-01-03T14:35:06.890Z,64.09
2023-01-03T14:37:46.809Z,64.67
2023-01-03T14:40:20.159Z,64.29
2023-01-03T14:42:52.098Z,64.36
2023-01-03T14:45:24.089Z,64.37
2023-01-03T14:47:56.089Z,64.72
2023-01-03T14:50:30.284Z,65.17
2023-01-03T14:53:03.243Z,65.12
2023-01-03T14:55:35.302Z,65.08
2023-01-03T14:58:36.248Z,65.72
2023-01-03T15:01:10.344Z,66.11
2023-01-03T15:03:46.355Z,66.39
2023-01-03T15:06:26.769Z,66.52
2023-01-03T15:09:01.744Z,66.57
2023-01-03T15:11:56.703Z,66.77
2023-01-03T15:14:31.913Z,66.63
2023-01-03T15:17:10.048Z,66.47
2023-01-03T15:19:50.421Z,66.45
2023-01-03T15:22:25.293Z,66.25
2023-01-03T15:25:05.906Z,66.62
2023-01-03T15:27:37.826Z,67.03
2023-01-03T15:30:16.539Z,66.85
2023-01-03T15:32:54.681Z,66.97
2023-01-03T15:35:42.717Z,67.21
2023-01-03T15:38:17.653Z,66.96
2023-01-03T15:40:51.342Z,67.40
2023-01-03T15:43:31.832Z,67.06
2023-01-03T15:46:16.792Z,67.03
2023-01-03T15:48:55.844Z,67.23
2023-01-03T15:51:28.017Z,67.24
2023-01-03T15:54:00.053Z,67.32
2023-01-03T15:56:35.594Z,67.32
2023-01-03T15:59:09.839Z,67.50
2023-01-03T16:01:41.992Z,67.34
2023-01-03T16:04:14.152Z,67.77
2023-01-03T16:06:46.150Z,67.60
2023-01-03T16:09:18.180Z,67.76
2023-01-03T16:11:56.573Z,67.53
2023-01-03T16:14:35.579Z,68.04
2023-01-03T16:17:09.309Z,67.72
2023-01-03T16:19:41.459Z,67.85
2023-01-03T16:25:06.892Z,67.87
2023-01-03T16:27:38.877Z,68.29
2023-01-03T16:30:12.935Z,68.55
2023-01-03T16:32:45.005Z,68.33
2023-01-03T16:35:19.577Z,68.16
2023-01-03T16:37:51.600Z,68.63
2023-01-03T16:40:23.579Z,68.23
2023-01-03T16:42:55.608Z,68.36
2023-01-03T16:45:27.595Z,68.53
2023-01-03T16:47:59.844Z,68.42
2023-01-03T16:50:35.255Z,68.80
2023-01-03T16:53:09.604Z,68.58
2023-01-03T16:55:41.676Z,68.53
2023-01-03T16:58:16.192Z,68.93
2023-01-03T17:00:48.531Z,69.38
2023-01-03T17:03:20.988Z,69.18
2023-01-03T17:05:53.299Z,69.30
2023-01-03T17:08:39.961Z,69.38
2023-01-03T17:11:11.939Z,69.78
2023-01-03T17:13:47.807Z,69.64
2023-01-03T17:16:23.552Z,69.93
2023-01-03T17:18:56.154Z,69.79
2023-01-03T17:21:34.633Z,69.85
2023-01-03T17:24:12.554Z,69.77
2023-01-03T17:26:45.026Z,70.08
2023-01-03T17:29:21.064Z,69.57
2023-01-03T17:31:53.675Z,69.65
2023-01-03T17:34:31.233Z,69.23
2023-01-03T17:37:03.142Z,69.18
2023-01-03T17:39:35.046Z,69.08
2023-01-03T17:42:16.461Z,69.47
2023-01-03T17:45:09.471Z,69.43
2023-01-03T17:48:02.766Z,68.97
2023-01-03T17:50:34.769Z,68.62
2023-01-03T17:53:10.777Z,68.68
2023-01-03T17:55:45.015Z,68.65
2023-01-03T17:58:25.099Z,68.58
2023-01-03T18:00:57.669Z,68.75
2023-01-03T18:03:31.213Z,68.42
2023-01-03T18:06:12.567Z,68.56
2023-01-03T18:08:45.212Z,68.56
2023-01-03T18:11:25.825Z,68.52
2023-01-03T18:13:57.861Z,68.52
2023-01-03T18:16:30.470Z,68.45
2023-01-03T18:19:02.364Z,68.38
2023-01-03T18:21:34.867Z,68.31
2023-01-03T18:24:19.043Z,68.49
2023-01-03T18:26:54.274Z,67.85
2023-01-03T18:29:26.232Z,67.92
2023-01-03T18:31:58.469Z,67.71
2023-01-03T18:34:30.434Z,67.90
2023-01-03T18:37:02.501Z,67.54
2023-01-03T18:39:34.471Z,67.39
2023-01-03T18:42:24.974Z,67.11
2023-01-03T18:44:56.936Z,67.04
2023-01-03T18:47:28.874Z,66.88
2023-01-03T18:50:00.803Z,66.59
2023-01-03T18:52:39.037Z,67.09
2023-01-03T18:55:23.749Z,66.80
2023-01-03T18:57:59.101Z,66.12
2023-01-03T19:00:31.023Z,66.04
2023-01-03T19:03:03.289Z,65.82
2023-01-03T19:05:35.204Z,65.75
2023-01-03T19:08:09.331Z,65.76
2023-01-03T19:10:41.253Z,66.25
2023-01-03T19:13:26.272Z,65.70
2023-01-03T19:15:58.324Z,64.83
2023-01-03T19:18:30.307Z,65.19
2023-01-03T19:21:02.344Z,65.33
2023-01-03T19:23:34.280Z,65.20
2023-01-03T19:26:06.452Z,65.40
2023-01-03T19:28:40.769Z,65.33
2023-01-03T19:31:12.985Z,65.25
2023-01-03T19:33:44.926Z,65.03
2023-01-03T19:36:17.471Z,64.15
2023-01-03T19:38:50.294Z,64.27
2023-01-03T19:41:22.434Z,64.10
2023-01-03T19:43:54.569Z,64.16
2023-01-03T19:46:26.593Z,64.01
2023-01-03T19:48:58.774Z,64.13
2023-01-03T19:51:30.732Z,64.78
2023-01-03T19:54:02.674Z,64.73
2023-01-03T19:56:34.695Z,64.48
2023-01-03T19:59:08.149Z,63.82
2023-01-03T20:02:14.089Z,64.58
2023-01-03T20:04:33.017Z,64.00
2023-01-03T20:07:13.954Z,63.74
2023-01-03T20:09:45.858Z,63.85
2023-01-03T20:12:23.304Z,64.38
2023-01-03T20:15:00.019Z,63.98
2023-01-03T20:17:36.512Z,63.89
2023-01-03T20:20:11.651Z,64.17
2023-01-03T20:23:04.484Z,64.20
2023-01-03T20:25:37.456Z,63.64
2023-01-03T20:28:20.043Z,63.39
2023-01-03T20:30:51.884Z,63.59
2023-01-03T20:33:24.742Z,63.14
2023-01-03T20:36:16.235Z,63.51
2023-01-03T20:38:54.805Z,63.76
2023-01-03T20:41:36.920Z,63.35
2023-01-03T20:44:10.532Z,62.81
2023-01-03T20:46:42.677Z,62.93
2023-01-03T20:49:20.000Z,63.73
2023-01-03T20:51:53.040Z,63.81
2023-01-03T20:54:24.940Z,63.60
2023-01-03T20:56:56.917Z,63.71
2023-01-03T20:59:29.588Z,63.68
2023-01-03T21:02:01.654Z,64.08
2023-01-03T21:04:33.747Z,63.88
2023-01-03T21:07:11.307Z,63.49
2023-01-03T21:09:43.762Z,63.88
2023-01-03T21:12:16.332Z,63.69
2023-01-03T21:14:49.824Z,63.92
2023-01-03T21:17:21.813Z,64.02
2023-01-03T21:19:53.683Z,64.12
2023-01-03T21:22:25.664Z,63.85
2023-01-03T21:24:58.060Z,63.97
2023-01-03T21:27:30.480Z,64.46
2023-01-03T21:30:02.411Z,64.65
2023-01-03T21:32:34.264Z,64.40
2023-01-03T21:35:06.928Z,64.17
2023-01-03T21:37:38.873Z,64.50
2023-01-03T21:40:24.845Z,64.32
2023-01-03T21:43:04.440Z,64.65
2023-01-03T21:45:40.749Z,64.58
2023-01-03T21:48:19.217Z,64.50
2023-01-03T21:50:51.367Z,64.61
2023-01-03T21:53:23.634Z,64.61
2023-01-03T21:55:55.543Z,64.82
2023-01-03T21:58:28.251Z,64.51
2023-01-03T22:01:10.319Z,64.78
2023-01-03T22:04:01.332Z,65.09
2023-01-03T22:06:33.841Z,65.55
2023-01-03T22:09:06.533Z,65.27
2023-01-03T22:11:39.062Z,65.10
2023-01-03T22:14:11.068Z,64.69
2023-01-03T22:16:43.102Z,64.70
2023-01-03T22:19:15.065Z,64.76
2023-01-03T22:21:47.006Z,64.57
2023-01-03T22:24:18.963Z,64.91
2023-01-03T22:26:50.910Z,64.80
2023-01-03T22:29:22.867Z,64.87
2023-01-03T22:31:54.853Z,65.24
2023-01-03T22:34:26.889Z,65.31
2023-01-03T22:36:58.761Z,65.33
2023-01-03T22:39:30.746Z,65.50
2023-01-03T22:42:02.795Z,65.57
2023-01-03T22:44:34.812Z,65.73
2023-01-03T22:47:07.040Z,65.66
2023-01-03T22:49:40.126Z,66.20
2023-01-03T22:52:12.062Z,65.89
2023-01-03T22:54:44.171Z,66.27
2023-01-03T22:57:16.310Z,66.35
2023-01-03T22:59:48.258Z,66.98
2023-01-03T23:02:26.192Z,67.04
2023-01-03T23:05:00.201Z,67.14
2023-01-03T23:07:32.132Z,67.11
2023-01-03T23:10:04.336Z,67.74
2023-01-03T23:12:55.908Z,67.69
2023-01-03T23:15:31.126Z,67.67
2023-01-03T23:18:03.113Z,68.10
2023-01-03T23:20:35.823Z,67.70
2023-01-03T23:23:09.931Z,68.24
2023-01-03T23:25:41.934Z,68.07
2023-01-03T23:28:13.898Z,68.17
2023-01-03T23:30:45.899Z,68.01
2023-01-03T23:33:17.832Z,68.12
2023-01-03T23:35:50.327Z,67.91
2023-01-03T23:38:22.272Z,68.65
2023-01-03T23:40:54.232Z,68.91
2023-01-03T23:43:26.204Z,68.43
2023-01-03T23:45:58.867Z,68.90
2023-01-03T23:48:31.070Z,69.00
2023-01-03T23:51:04.875Z,68.68
2023-01-03T23:53:38.945Z,69.24
2023-01-03T23:56:17.121Z,69.43
2023-01-03T23:58:49.575Z,69.26
